Time;durP1;ratioP1;P1;durP2;ratioP2;P2;SDS_P1;SDS_P2;PMS_P1;PMS_P2;Temp;Humidity;BMP_temperature;BMP_pressure;BME280_temperature;BME280_humidity;BME280_pressure;Samples;Min_cycle;Max_cycle;Signal;HPM_P1;HPM_P2
2023/11/05 00:01:22;;;;;;;2.27;2.07;;;;;;;;;;5131381;28;20608;-82
2023/11/05 00:03:50;;;;;;;3.23;1.77;;;;;;;;;;5130593;28;20195;-82
2023/11/05 00:06:16;;;;;;;3.73;1.50;;;;;;;;;;5133155;27;20620;-82
2023/11/05 00:08:43;;;;;;;3.30;2.50;;;;;;;;;;5134507;27;20198;-82
2023/11/05 00:11:10;;;;;;;2.70;2.33;;;;;;;;;;5134776;27;20237;-83
2023/11/05 00:13:37;;;;;;;2.33;1.93;;;;;;;;;;5134525;27;20194;-83
2023/11/05 00:16:04;;;;;;;2.30;2.10;;;;;;;;;;5134406;27;20198;-83
2023/11/05 00:18:31;;;;;;;1.63;1.53;;;;;;;;;;5134258;27;20199;-82
2023/11/05 00:20:59;;;;;;;2.10;1.53;;;;;;;;;;5120760;27;20207;-82
2023/11/05 00:23:26;;;;;;;2.70;1.30;;;;;;;;;;5121066;27;20207;-83
2023/11/05 00:25:53;;;;;;;1.73;1.57;;;;;;;;;;5134065;27;20199;-83
2023/11/05 00:28:20;;;;;;;1.67;1.43;;;;;;;;;;5121550;27;20202;-81
2023/11/05 00:30:46;;;;;;;1.40;1.30;;;;;;;;;;5133967;27;20259;-83
2023/11/05 00:33:13;;;;;;;1.00;1.00;;;;;;;;;;5134388;27;20599;-83
2023/11/05 00:35:40;;;;;;;1.87;1.50;;;;;;;;;;5134024;27;20202;-83
2023/11/05 00:38:09;;;;;;;1.43;1.17;;;;;;;;;;5134185;27;20230;-83
2023/11/05 00:40:35;;;;;;;1.10;1.10;;;;;;;;;;5133750;27;20241;-83
2023/11/05 00:43:04;;;;;;;1.60;1.27;;;;;;;;;;5134139;27;20712;-82
2023/11/05 00:45:31;;;;;;;1.63;1.10;;;;;;;;;;5134189;27;20233;-82
2023/11/05 00:47:57;;;;;;;1.47;1.17;;;;;;;;;;5133815;27;20194;-83
2023/11/05 00:50:24;;;;;;;1.10;1.00;;;;;;;;;;5133477;27;20703;-82
2023/11/05 00:52:51;;;;;;;0.80;0.80;;;;;;;;;;5134026;27;20699;-82
2023/11/05 00:55:19;;;;;;;2.17;0.93;;;;;;;;;;5133822;27;20203;-83
2023/11/05 00:57:46;;;;;;;0.80;0.80;;;;;;;;;;5123882;27;20683;-82
2023/11/05 01:00:13;;;;;;;0.97;0.93;;;;;;;;;;5130171;27;20198;-82
2023/11/05 01:02:40;;;;;;;0.90;0.90;;;;;;;;;;5133710;27;20234;-82
2023/11/05 01:05:08;;;;;;;1.00;1.00;;;;;;;;;;5133732;27;20206;-82
2023/11/05 01:07:35;;;;;;;1.03;1.03;;;;;;;;;;5133509;27;20207;-83
2023/11/05 01:10:02;;;;;;;1.70;0.70;;;;;;;;;;5132640;27;20219;-82
2023/11/05 01:12:30;;;;;;;0.87;0.80;;;;;;;;;;5133029;27;20199;-82
2023/11/05 01:14:57;;;;;;;0.70;0.70;;;;;;;;;;5130119;27;20203;-82
2023/11/05 01:17:24;;;;;;;0.90;0.90;;;;;;;;;;5123729;27;20203;-82
2023/11/05 01:19:51;;;;;;;0.83;0.83;;;;;;;;;;5132992;27;20609;-82
2023/11/05 01:22:18;;;;;;;2.47;1.37;;;;;;;;;;5132885;27;20223;-82
2023/11/05 01:24:45;;;;;;;4.27;1.60;;;;;;;;;;5132994;27;20195;-82
2023/11/05 01:27:11;;;;;;;1.60;1.30;;;;;;;;;;5133536;27;20206;-83
2023/11/05 01:29:40;;;;;;;4.00;1.50;;;;;;;;;;5132512;27;20205;-82
2023/11/05 01:32:08;;;;;;;1.47;1.37;;;;;;;;;;5133263;27;20222;-82
2023/11/05 01:34:34;;;;;;;1.47;1.37;;;;;;;;;;5128112;27;20199;-82
2023/11/05 01:37:02;;;;;;;1.13;1.03;;;;;;;;;;5124327;27;20267;-82
2023/11/05 01:39:29;;;;;;;1.00;1.00;;;;;;;;;;5132423;27;20198;-82
2023/11/05 01:41:55;;;;;;;0.90;0.90;;;;;;;;;;5133163;27;20642;-82
2023/11/05 01:44:22;;;;;;;1.10;1.00;;;;;;;;;;5132022;27;20203;-82
2023/11/05 01:46:50;;;;;;;0.83;0.83;;;;;;;;;;5120517;27;20200;-83
2023/11/05 01:49:17;;;;;;;1.53;0.90;;;;;;;;;;5131605;27;20804;-82
2023/11/05 01:51:44;;;;;;;1.00;1.00;;;;;;;;;;5132760;27;20321;-82
2023/11/05 01:54:12;;;;;;;0.90;0.90;;;;;;;;;;5132628;27;20286;-82
2023/11/05 01:56:39;;;;;;;1.03;1.03;;;;;;;;;;5132800;27;20283;-82
2023/11/05 01:59:06;;;;;;;0.80;0.80;;;;;;;;;;5132689;27;20209;-82
2023/11/05 02:01:33;;;;;;;0.60;0.60;;;;;;;;;;5132848;27;20259;-83
2023/11/05 02:04:01;;;;;;;2.60;1.13;;;;;;;;;;5132798;27;20627;-82
2023/11/05 02:06:28;;;;;;;1.00;1.00;;;;;;;;;;5131686;27;20207;-82
2023/11/05 02:08:55;;;;;;;0.93;0.93;;;;;;;;;;5132170;27;20194;-82
2023/11/05 02:11:22;;;;;;;0.80;0.80;;;;;;;;;;5118245;27;20258;-82
2023/11/05 02:13:51;;;;;;;0.90;0.90;;;;;;;;;;5132123;27;20684;-82
2023/11/05 02:16:19;;;;;;;0.60;0.60;;;;;;;;;;5131792;27;20627;-83
2023/11/05 02:18:46;;;;;;;1.37;0.90;;;;;;;;;;5132061;27;20194;-82
2023/11/05 02:21:15;;;;;;;0.80;0.80;;;;;;;;;;5131684;27;20206;-83
2023/11/05 02:23:43;;;;;;;0.97;0.97;;;;;;;;;;5132174;27;20268;-83
2023/11/05 02:26:10;;;;;;;0.70;0.70;;;;;;;;;;5131898;27;20202;-83
2023/11/05 02:28:37;;;;;;;0.67;0.67;;;;;;;;;;5131319;27;20203;-82
2023/11/05 02:31:04;;;;;;;1.57;1.17;;;;;;;;;;5131816;27;20198;-81
2023/11/05 02:33:31;;;;;;;0.80;0.80;;;;;;;;;;5131853;27;20203;-82
2023/11/05 02:35:58;;;;;;;0.80;0.80;;;;;;;;;;5131352;27;20226;-82
2023/11/05 02:38:25;;;;;;;0.87;0.83;;;;;;;;;;5131827;27;20209;-83
2023/11/05 02:40:53;;;;;;;0.67;0.67;;;;;;;;;;5131349;27;20203;-82
2023/11/05 02:43:20;;;;;;;1.63;0.93;;;;;;;;;;5131781;27;20245;-83
2023/11/05 02:45:47;;;;;;;1.00;1.00;;;;;;;;;;5132025;27;20267;-82
2023/11/05 02:48:14;;;;;;;0.73;0.73;;;;;;;;;;5131695;27;20672;-82
2023/11/05 02:50:39;;;;;;;1.37;1.37;;;;;;;;;;5131048;27;20195;-82
2023/11/05 02:53:08;;;;;;;0.87;0.70;;;;;;;;;;5131980;27;20199;-82
2023/11/05 02:55:35;;;;;;;0.83;0.83;;;;;;;;;;5131098;27;20226;-83
2023/11/05 02:58:03;;;;;;;2.13;1.93;;;;;;;;;;5131222;27;20202;-82
2023/11/05 03:00:33;;;;;;;2.30;2.03;;;;;;;;;;5127047;27;20256;-82
2023/11/05 03:03:00;;;;;;;3.70;1.80;;;;;;;;;;5122307;28;20605;-82
2023/11/05 03:05:27;;;;;;;1.20;1.10;;;;;;;;;;5131125;28;20695;-82
2023/11/05 03:07:54;;;;;;;1.00;1.00;;;;;;;;;;5131917;28;20207;-82
2023/11/05 03:10:21;;;;;;;1.03;1.03;;;;;;;;;;5124808;28;20227;-82
2023/11/05 03:12:47;;;;;;;2.23;0.93;;;;;;;;;;5124321;28;20263;-82
2023/11/05 03:15:16;;;;;;;0.87;0.87;;;;;;;;;;5130770;28;20601;-83
2023/11/05 03:17:42;;;;;;;0.90;0.90;;;;;;;;;;5131363;28;20206;-84
2023/11/05 03:20:10;;;;;;;1.57;1.30;;;;;;;;;;5131398;28;20202;-82
2023/11/05 03:22:36;;;;;;;2.07;1.07;;;;;;;;;;5131226;28;20219;-83
2023/11/05 03:25:03;;;;;;;1.77;0.83;;;;;;;;;;5124844;28;20214;-82
2023/11/05 03:27:30;;;;;;;0.70;0.70;;;;;;;;;;5124345;28;20206;-82
2023/11/05 03:29:57;;;;;;;0.97;0.90;;;;;;;;;;5123989;28;20225;-83
2023/11/05 03:32:25;;;;;;;1.13;0.80;;;;;;;;;;5124780;28;20211;-82
2023/11/05 03:34:54;;;;;;;0.90;0.63;;;;;;;;;;5131090;28;20199;-83
2023/11/05 03:37:21;;;;;;;1.37;1.27;;;;;;;;;;5131528;28;20199;-81
2023/11/05 03:39:48;;;;;;;1.50;1.40;;;;;;;;;;5130648;27;20673;-82
2023/11/05 03:42:15;;;;;;;1.23;1.13;;;;;;;;;;5121483;27;20575;-82
2023/11/05 03:44:42;;;;;;;1.40;1.33;;;;;;;;;;5135162;27;20667;-82
2023/11/05 03:47:09;;;;;;;3.60;1.47;;;;;;;;;;5134520;27;20202;-81
2023/11/05 03:49:37;;;;;;;1.30;1.20;;;;;;;;;;5134514;27;20213;-82
2023/11/05 03:52:04;;;;;;;1.00;0.93;;;;;;;;;;5135079;27;20676;-81
2023/11/05 03:54:31;;;;;;;1.70;1.30;;;;;;;;;;5134982;27;20676;-81
2023/11/05 03:56:58;;;;;;;1.10;1.00;;;;;;;;;;5134751;27;20279;-82
2023/11/05 03:59:25;;;;;;;0.97;0.97;;;;;;;;;;5134356;27;20199;-82
2023/11/05 04:01:52;;;;;;;1.17;0.90;;;;;;;;;;5131092;27;20203;-82
2023/11/05 04:04:19;;;;;;;3.03;0.83;;;;;;;;;;5124425;27;20230;-82
2023/11/05 04:06:47;;;;;;;0.80;0.80;;;;;;;;;;5134836;27;20195;-82
2023/11/05 04:09:14;;;;;;;1.00;1.00;;;;;;;;;;5110895;27;20215;-81
2023/11/05 04:11:41;;;;;;;1.80;1.70;;;;;;;;;;5129007;27;20235;-81
2023/11/05 04:14:08;;;;;;;1.30;1.20;;;;;;;;;;5131435;27;20598;-82
2023/11/05 04:16:35;;;;;;;1.10;1.00;;;;;;;;;;5129123;27;20207;-82
2023/11/05 04:19:02;;;;;;;1.00;1.00;;;;;;;;;;5131776;27;20210;-81
2023/11/05 04:21:29;;;;;;;1.77;1.67;;;;;;;;;;5130030;27;20223;-81
2023/11/05 04:23:57;;;;;;;3.30;1.10;;;;;;;;;;5132235;27;20224;-81
2023/11/05 04:26:24;;;;;;;0.97;0.97;;;;;;;;;;5131341;27;20592;-81
2023/11/05 04:28:51;;;;;;;1.50;1.40;;;;;;;;;;5132706;27;20206;-82
2023/11/05 04:31:18;;;;;;;1.40;1.30;;;;;;;;;;5131988;27;20199;-82
2023/11/05 04:33:44;;;;;;;1.27;1.10;;;;;;;;;;5133331;27;20244;-82
2023/11/05 04:36:11;;;;;;;1.13;1.03;;;;;;;;;;5134127;27;20202;-82
2023/11/05 04:38:38;;;;;;;1.70;1.60;;;;;;;;;;5133318;27;20259;-81
2023/11/05 04:41:06;;;;;;;2.00;1.80;;;;;;;;;;5133390;27;20203;-82
2023/11/05 04:43:33;;;;;;;2.40;2.20;;;;;;;;;;5121359;27;20231;-82
2023/11/05 04:46:01;;;;;;;4.27;1.60;;;;;;;;;;5113904;27;20192;-82
2023/11/05 04:48:28;;;;;;;1.10;1.10;;;;;;;;;;5126621;27;20206;-82
2023/11/05 04:50:55;;;;;;;0.93;0.93;;;;;;;;;;5114760;27;20233;-82
2023/11/05 04:53:21;;;;;;;0.97;0.93;;;;;;;;;;5115599;27;20206;-82
2023/11/05 04:55:48;;;;;;;1.10;1.10;;;;;;;;;;5115499;27;20215;-82
2023/11/05 04:58:17;;;;;;;1.00;1.00;;;;;;;;;;5127958;27;20683;-82
2023/11/05 05:00:44;;;;;;;1.20;1.00;;;;;;;;;;5133789;27;20206;-81
2023/11/05 05:03:10;;;;;;;0.90;0.90;;;;;;;;;;5133694;27;20226;-81
2023/11/05 05:05:37;;;;;;;2.27;0.90;;;;;;;;;;5133668;27;20199;-81
2023/11/05 05:08:05;;;;;;;2.93;0.83;;;;;;;;;;5118170;27;20207;-82
2023/11/05 05:10:31;;;;;;;1.20;1.00;;;;;;;;;;5122553;27;20229;-80
2023/11/05 05:12:58;;;;;;;0.87;0.80;;;;;;;;;;5128746;27;20292;-81
2023/11/05 05:15:27;;;;;;;1.20;1.10;;;;;;;;;;5132446;27;20198;-82
2023/11/05 05:17:54;;;;;;;3.70;2.97;;;;;;;;;;5132710;27;20198;-81
2023/11/05 05:20:21;;;;;;;9.63;8.63;;;;;;;;;;5128266;27;20206;-81
2023/11/05 05:22:48;;;;;;;3.30;3.00;;;;;;;;;;5121188;27;20608;-81
2023/11/05 05:25:14;;;;;;;1.60;1.50;;;;;;;;;;5123312;27;20647;-82
2023/11/05 05:27:41;;;;;;;1.37;1.13;;;;;;;;;;5119226;27;20199;-81
2023/11/05 05:30:09;;;;;;;6.37;5.73;;;;;;;;;;5133556;27;20199;-81
2023/11/05 05:32:37;;;;;;;5.20;3.93;;;;;;;;;;5122747;27;20209;-81
2023/11/05 05:35:05;;;;;;;9.00;6.40;;;;;;;;;;5122102;27;20202;-81
2023/11/05 05:37:31;;;;;;;6.03;5.40;;;;;;;;;;5120442;27;20234;-81
2023/11/05 05:39:58;;;;;;;6.20;4.67;;;;;;;;;;5123999;27;20319;-81
2023/11/05 05:42:25;;;;;;;3.93;3.63;;;;;;;;;;5121128;27;20199;-81
2023/11/05 05:44:53;;;;;;;5.40;3.23;;;;;;;;;;5125068;27;20229;-82
2023/11/05 05:47:19;;;;;;;15.13;9.77;;;;;;;;;;5121453;27;20602;-81
2023/11/05 05:49:48;;;;;;;7.67;6.67;;;;;;;;;;5126158;27;20199;-81
2023/11/05 05:52:15;;;;;;;12.93;11.40;;;;;;;;;;5121454;27;20211;-81
2023/11/05 05:54:42;;;;;;;13.23;10.47;;;;;;;;;;5132831;27;20210;-81
2023/11/05 05:57:08;;;;;;;5.87;5.33;;;;;;;;;;5122116;27;20196;-81
2023/11/05 05:59:35;;;;;;;3.73;3.43;;;;;;;;;;5123371;27;20310;-81
2023/11/05 06:02:04;;;;;;;2.27;2.00;;;;;;;;;;5127926;27;20556;-82
2023/11/05 06:04:31;;;;;;;3.50;3.20;;;;;;;;;;5129800;27;20230;-81
2023/11/05 06:06:59;;;;;;;2.93;2.63;;;;;;;;;;5131403;27;20202;-82
2023/11/05 06:09:26;;;;;;;2.23;1.80;;;;;;;;;;5120230;27;20211;-82
2023/11/05 06:11:53;;;;;;;1.80;1.70;;;;;;;;;;5112217;27;20314;-82
2023/11/05 06:14:20;;;;;;;3.00;2.03;;;;;;;;;;5112579;27;20259;-81
2023/11/05 06:16:47;;;;;;;4.43;1.70;;;;;;;;;;5111175;27;20735;-82
2023/11/05 06:19:13;;;;;;;1.37;1.30;;;;;;;;;;5125236;27;20652;-83
2023/11/05 06:21:44;;;;;;;2.00;1.80;;;;;;;;;;5111598;28;20210;-83
2023/11/05 06:24:12;;;;;;;2.63;2.00;;;;;;;;;;5113411;28;20284;-81
2023/11/05 06:26:40;;;;;;;2.10;2.00;;;;;;;;;;5125355;27;20210;-82
2023/11/05 06:29:07;;;;;;;1.70;1.60;;;;;;;;;;5111818;27;20264;-81
2023/11/05 06:31:34;;;;;;;3.97;1.47;;;;;;;;;;5113443;27;21030;-83
2023/11/05 06:34:00;;;;;;;3.00;2.00;;;;;;;;;;5124357;27;20211;-83
2023/11/05 06:36:27;;;;;;;2.07;1.87;;;;;;;;;;5098437;27;20678;-83
2023/11/05 06:38:54;;;;;;;6.37;4.30;;;;;;;;;;5132000;27;20198;-83
2023/11/05 06:41:22;;;;;;;5.70;4.97;;;;;;;;;;5130858;27;20199;-83
2023/11/05 06:43:49;;;;;;;7.60;6.10;;;;;;;;;;5111728;28;20747;-83
2023/11/05 06:46:17;;;;;;;5.73;3.77;;;;;;;;;;5116992;27;20206;-83
2023/11/05 06:48:44;;;;;;;5.13;4.60;;;;;;;;;;5111547;28;20263;-83
2023/11/05 06:51:11;;;;;;;4.83;3.93;;;;;;;;;;5130662;27;20205;-84
2023/11/05 06:53:38;;;;;;;4.27;3.50;;;;;;;;;;5130156;27;20198;-83
2023/11/05 06:56:06;;;;;;;4.50;4.07;;;;;;;;;;5113008;27;20210;-83
2023/11/05 06:58:34;;;;;;;4.67;4.13;;;;;;;;;;5112844;28;20203;-83
2023/11/05 07:01:01;;;;;;;3.03;2.73;;;;;;;;;;5124228;27;20278;-82
2023/11/05 07:03:28;;;;;;;4.57;3.23;;;;;;;;;;5117417;28;20226;-83
2023/11/05 07:05:55;;;;;;;3.93;2.77;;;;;;;;;;5131348;28;20207;-83
2023/11/05 07:08:22;;;;;;;3.63;2.80;;;;;;;;;;5118411;28;20218;-84
2023/11/05 07:10:49;;;;;;;2.90;2.57;;;;;;;;;;5130881;28;20712;-84
2023/11/05 07:13:16;;;;;;;5.83;5.10;;;;;;;;;;5100163;28;20210;-84
2023/11/05 07:15:45;;;;;;;6.17;5.57;;;;;;;;;;5134761;27;20207;-84
2023/11/05 07:18:12;;;;;;;6.13;5.53;;;;;;;;;;5135775;27;20637;-84
2023/11/05 07:20:39;;;;;;;6.63;4.77;;;;;;;;;;5103834;28;20207;-83
2023/11/05 07:23:07;;;;;;;6.40;4.50;;;;;;;;;;5112520;27;20210;-83
2023/11/05 07:25:34;;;;;;;3.93;3.50;;;;;;;;;;5117973;27;20244;-84
2023/11/05 07:28:03;;;;;;;2.13;1.93;;;;;;;;;;5135712;27;20207;-83
2023/11/05 07:30:30;;;;;;;0.77;0.77;;;;;;;;;;5135435;27;20198;-83
2023/11/05 07:32:58;;;;;;;0.80;0.80;;;;;;;;;;5122128;27;20210;-84
2023/11/05 07:35:26;;;;;;;1.80;1.00;;;;;;;;;;5135861;27;20206;-84
2023/11/05 07:37:54;;;;;;;1.70;1.57;;;;;;;;;;5121023;27;20244;-82
2023/11/05 07:40:21;;;;;;;1.73;1.63;;;;;;;;;;5122475;27;20681;-82
2023/11/05 07:42:48;;;;;;;2.97;2.47;;;;;;;;;;5135587;27;20648;-83
2023/11/05 07:45:15;;;;;;;2.13;1.67;;;;;;;;;;5135226;27;20708;-83
2023/11/05 07:47:42;;;;;;;1.37;1.27;;;;;;;;;;5128377;27;20204;-83
2023/11/05 07:50:12;;;;;;;1.07;1.07;;;;;;;;;;5128997;27;20198;-83
2023/11/05 07:52:40;;;;;;;4.37;3.17;;;;;;;;;;5127625;27;20576;-83
2023/11/05 07:55:08;;;;;;;3.80;2.53;;;;;;;;;;5125516;27;20191;-83
2023/11/05 07:57:35;;;;;;;2.10;0.73;;;;;;;;;;5128937;27;20620;-82
2023/11/05 08:00:03;;;;;;;1.03;0.90;;;;;;;;;;5135332;27;20199;-83
2023/11/05 08:02:30;;;;;;;1.90;1.43;;;;;;;;;;5124795;27;20190;-82
2023/11/05 08:04:57;;;;;;;5.83;3.27;;;;;;;;;;5125512;27;20227;-83
2023/11/05 08:07:25;;;;;;;4.90;3.83;;;;;;;;;;5110922;27;20704;-83
2023/11/05 08:09:53;;;;;;;5.80;3.33;;;;;;;;;;5131491;27;20204;-83
2023/11/05 08:12:20;;;;;;;6.47;3.13;;;;;;;;;;5124217;27;20673;-82
2023/11/05 08:14:47;;;;;;;3.00;1.47;;;;;;;;;;5134519;27;20235;-83
2023/11/05 08:17:14;;;;;;;1.73;1.20;;;;;;;;;;5134415;27;20286;-83
2023/11/05 08:19:41;;;;;;;1.93;1.53;;;;;;;;;;5118047;27;20211;-83
2023/11/05 08:22:08;;;;;;;2.27;0.80;;;;;;;;;;5134115;27;20214;-83
2023/11/05 08:24:36;;;;;;;2.53;1.30;;;;;;;;;;5121543;27;20234;-84
2023/11/05 08:27:03;;;;;;;1.40;0.73;;;;;;;;;;5127202;27;20268;-83
2023/11/05 08:29:30;;;;;;;3.83;1.00;;;;;;;;;;5127612;27;20203;-84
2023/11/05 08:31:57;;;;;;;2.33;0.97;;;;;;;;;;5114524;28;20632;-85
2023/11/05 08:34:24;;;;;;;0.90;0.90;;;;;;;;;;5127769;27;20210;-84
2023/11/05 08:36:50;;;;;;;1.63;1.00;;;;;;;;;;5121763;27;20712;-83
2023/11/05 08:39:19;;;;;;;0.80;0.80;;;;;;;;;;5119492;27;20233;-84
2023/11/05 08:41:48;;;;;;;4.50;1.27;;;;;;;;;;5122097;27;20199;-83
2023/11/05 08:44:16;;;;;;;2.73;1.23;;;;;;;;;;5132150;27;20742;-83
2023/11/05 08:46:44;;;;;;;2.30;0.90;;;;;;;;;;5122927;27;20238;-84
2023/11/05 08:49:11;;;;;;;0.80;0.80;;;;;;;;;;5120276;27;20214;-84
2023/11/05 08:51:38;;;;;;;1.10;1.00;;;;;;;;;;5124991;27;20204;-83
2023/11/05 08:54:06;;;;;;;0.80;0.80;;;;;;;;;;5127481;27;20214;-83
2023/11/05 08:56:32;;;;;;;0.90;0.90;;;;;;;;;;5123440;27;20673;-83
2023/11/05 08:59:00;;;;;;;0.80;0.80;;;;;;;;;;5131051;27;20207;-84
2023/11/05 09:01:28;;;;;;;2.17;1.03;;;;;;;;;;5124637;27;20642;-85
2023/11/05 09:03:55;;;;;;;1.00;1.00;;;;;;;;;;5120205;27;20203;-83
2023/11/05 09:06:23;;;;;;;1.27;0.83;;;;;;;;;;5122967;27;20218;-84
2023/11/05 09:08:51;;;;;;;0.83;0.77;;;;;;;;;;5133790;27;20580;-83
2023/11/05 09:11:18;;;;;;;1.03;1.00;;;;;;;;;;5118786;27;20231;-83
2023/11/05 09:13:45;;;;;;;1.00;0.87;;;;;;;;;;5120605;27;20687;-83
2023/11/05 09:16:13;;;;;;;1.40;1.30;;;;;;;;;;5118890;27;20784;-84
2023/11/05 09:18:40;;;;;;;0.70;0.70;;;;;;;;;;5121229;27;20214;-83
2023/11/05 09:21:07;;;;;;;1.30;1.20;;;;;;;;;;5133546;27;20204;-83
2023/11/05 09:23:34;;;;;;;1.13;0.80;;;;;;;;;;5124342;27;20215;-83
2023/11/05 09:26:01;;;;;;;1.90;0.90;;;;;;;;;;5127978;27;20411;-84
2023/11/05 09:28:29;;;;;;;1.20;1.03;;;;;;;;;;5114803;27;20210;-83
2023/11/05 09:30:56;;;;;;;2.83;1.23;;;;;;;;;;5132140;27;20215;-83
2023/11/05 09:33:24;;;;;;;1.40;1.27;;;;;;;;;;5113009;28;20262;-83
2023/11/05 09:35:51;;;;;;;1.97;1.30;;;;;;;;;;5112973;28;20207;-83
2023/11/05 09:38:19;;;;;;;3.33;1.53;;;;;;;;;;5102920;27;20197;-83
2023/11/05 09:40:47;;;;;;;3.23;1.30;;;;;;;;;;5121244;27;20257;-83
2023/11/05 09:43:14;;;;;;;4.87;1.40;;;;;;;;;;5131900;27;20204;-83
2023/11/05 09:45:41;;;;;;;1.40;1.03;;;;;;;;;;5133062;27;20232;-83
2023/11/05 09:48:11;;;;;;;2.33;1.33;;;;;;;;;;5127158;27;20204;-83
2023/11/05 09:50:41;;;;;;;4.00;1.63;;;;;;;;;;5126732;27;20196;-83
2023/11/05 09:53:10;;;;;;;0.83;0.83;;;;;;;;;;5106925;27;20632;-83
2023/11/05 09:55:39;;;;;;;2.03;1.10;;;;;;;;;;5133158;27;20209;-82
2023/11/05 09:58:06;;;;;;;1.07;0.87;;;;;;;;;;5132602;27;20379;-83
2023/11/05 10:00:34;;;;;;;3.27;2.03;;;;;;;;;;5131251;27;20201;-83
2023/11/05 10:03:03;;;;;;;1.70;1.00;;;;;;;;;;5120891;27;20637;-84
2023/11/05 10:05:33;;;;;;;4.60;1.80;;;;;;;;;;5132565;27;20735;-86
2023/11/05 10:08:01;;;;;;;4.23;2.40;;;;;;;;;;5119862;27;20208;-82
2023/11/05 10:10:28;;;;;;;4.50;3.30;;;;;;;;;;5105795;27;20318;-83
2023/11/05 10:12:55;;;;;;;3.30;2.60;;;;;;;;;;5131370;27;20204;-84
2023/11/05 10:15:23;;;;;;;12.40;3.70;;;;;;;;;;5112313;28;20222;-83
2023/11/05 10:17:50;;;;;;;7.57;2.40;;;;;;;;;;5112623;27;20208;-83
2023/11/05 10:20:17;;;;;;;3.90;1.80;;;;;;;;;;5132632;27;20198;-83
2023/11/05 10:22:44;;;;;;;1.97;1.87;;;;;;;;;;5095794;28;20267;-82
2023/11/05 10:25:25;;;;;;;1.67;1.57;;;;;;;;;;5123428;27;20233;-83
2023/11/05 10:27:53;;;;;;;1.40;1.30;;;;;;;;;;5105340;27;20220;-83
2023/11/05 10:30:20;;;;;;;1.20;1.20;;;;;;;;;;5118248;27;20229;-84
2023/11/05 10:32:49;;;;;;;1.30;1.20;;;;;;;;;;5111992;28;20222;-83
2023/11/05 10:35:19;;;;;;;1.80;1.70;;;;;;;;;;5111698;28;20678;-84
2023/11/05 10:37:46;;;;;;;1.20;1.13;;;;;;;;;;5125520;27;20327;-84
2023/11/05 10:40:14;;;;;;;3.73;1.30;;;;;;;;;;5111564;28;20198;-83
2023/11/05 10:42:44;;;;;;;1.40;1.10;;;;;;;;;;5111853;27;20628;-83
2023/11/05 10:45:12;;;;;;;1.60;1.50;;;;;;;;;;5123186;27;20636;-83
2023/11/05 10:47:39;;;;;;;4.87;2.17;;;;;;;;;;5118099;27;20214;-83
2023/11/05 10:50:08;;;;;;;4.30;2.53;;;;;;;;;;5130407;27;20255;-84
2023/11/05 10:52:36;;;;;;;4.17;1.63;;;;;;;;;;5118542;27;20235;-84
2023/11/05 10:55:07;;;;;;;1.90;1.30;;;;;;;;;;5119102;27;20644;-83
2023/11/05 10:57:42;;;;;;;1.43;1.20;;;;;;;;;;5104751;27;20205;-84
2023/11/05 11:00:44;;;;;;;2.90;1.50;;;;;;;;;;5129820;27;20289;-84
2023/11/05 11:03:13;;;;;;;5.50;1.67;;;;;;;;;;5124955;28;20233;-84
2023/11/05 11:05:56;;;;;;;3.83;2.30;;;;;;;;;;5123765;28;20243;-83
2023/11/05 11:08:24;;;;;;;3.23;1.70;;;;;;;;;;5128031;28;20217;-83
2023/11/05 11:11:07;;;;;;;4.37;1.47;;;;;;;;;;5093154;28;20284;-84
2023/11/05 11:13:39;;;;;;;0.97;0.97;;;;;;;;;;5130004;28;20211;-84
2023/11/05 11:16:08;;;;;;;0.70;0.70;;;;;;;;;;5131816;28;20252;-84
2023/11/05 11:18:36;;;;;;;2.43;1.00;;;;;;;;;;5105330;28;20210;-84
2023/11/05 11:21:04;;;;;;;4.43;1.23;;;;;;;;;;5131093;28;20206;-85
2023/11/05 11:23:32;;;;;;;2.80;1.40;;;;;;;;;;5131349;27;20267;-84
2023/11/05 11:26:01;;;;;;;0.90;0.90;;;;;;;;;;5129215;27;20237;-84
2023/11/05 11:28:29;;;;;;;4.07;2.73;;;;;;;;;;5099243;28;20199;-84
2023/11/05 11:30:58;;;;;;;1.97;1.67;;;;;;;;;;5126383;28;20191;-84
2023/11/05 11:33:27;;;;;;;2.50;1.17;;;;;;;;;;5132224;28;20665;-83
2023/11/05 11:35:54;;;;;;;2.77;2.20;;;;;;;;;;5131438;28;20190;-84
2023/11/05 11:38:21;;;;;;;1.97;1.23;;;;;;;;;;5131790;28;20207;-84
2023/11/05 11:40:54;;;;;;;1.20;1.10;;;;;;;;;;5099687;28;20219;-84
2023/11/05 11:43:22;;;;;;;9.03;1.40;;;;;;;;;;5131442;27;20293;-84
2023/11/05 11:45:49;;;;;;;0.83;0.83;;;;;;;;;;5128551;28;20227;-83
2023/11/05 11:48:18;;;;;;;3.00;2.70;;;;;;;;;;5115293;28;20573;-83
2023/11/05 11:50:55;;;;;;;0.93;0.93;;;;;;;;;;5128833;28;20591;-83
2023/11/05 11:53:29;;;;;;;1.20;1.10;;;;;;;;;;5126118;28;20203;-85
2023/11/05 11:55:56;;;;;;;0.93;0.93;;;;;;;;;;5110167;28;20669;-84
2023/11/05 11:58:25;;;;;;;0.80;0.80;;;;;;;;;;5114368;28;20271;-84
2023/11/05 12:00:53;;;;;;;2.33;0.90;;;;;;;;;;5120277;28;20212;-84
2023/11/05 12:03:22;;;;;;;1.60;1.17;;;;;;;;;;5133351;27;20191;-84
2023/11/05 12:05:49;;;;;;;1.03;0.93;;;;;;;;;;5122114;27;20705;-84
2023/11/05 12:08:17;;;;;;;0.90;0.90;;;;;;;;;;5130865;27;20711;-84
2023/11/05 12:10:44;;;;;;;4.77;1.40;;;;;;;;;;5123527;27;20268;-84
2023/11/05 12:13:13;;;;;;;1.03;1.00;;;;;;;;;;5119905;27;20203;-84
2023/11/05 12:15:40;;;;;;;1.00;0.90;;;;;;;;;;5135168;27;20207;-84
2023/11/05 12:18:07;;;;;;;1.47;0.60;;;;;;;;;;5131594;27;20235;-84
2023/11/05 12:20:35;;;;;;;2.73;1.37;;;;;;;;;;5124772;27;20239;-86
2023/11/05 12:23:02;;;;;;;0.80;0.80;;;;;;;;;;5135427;27;20199;-84
2023/11/05 12:25:30;;;;;;;2.37;1.00;;;;;;;;;;5094571;28;20235;-84
2023/11/05 12:27:57;;;;;;;2.23;1.47;;;;;;;;;;5124308;27;20196;-84
2023/11/05 12:30:25;;;;;;;3.60;1.10;;;;;;;;;;5124929;27;20234;-85
2023/11/05 12:32:53;;;;;;;1.53;0.73;;;;;;;;;;5133460;27;20212;-84
2023/11/05 12:35:20;;;;;;;0.80;0.80;;;;;;;;;;5134504;27;20210;-84
2023/11/05 12:37:49;;;;;;;1.97;1.30;;;;;;;;;;5133797;27;20586;-84
2023/11/05 12:40:16;;;;;;;2.20;0.97;;;;;;;;;;5122473;27;20207;-84
2023/11/05 12:42:43;;;;;;;2.23;1.50;;;;;;;;;;5131087;27;20585;-84
2023/11/05 12:45:11;;;;;;;4.80;0.70;;;;;;;;;;5134389;27;20305;-84
2023/11/05 12:47:38;;;;;;;0.90;0.90;;;;;;;;;;5134156;27;20195;-85
2023/11/05 12:50:07;;;;;;;0.73;0.73;;;;;;;;;;5115885;27;20207;-84
2023/11/05 12:52:34;;;;;;;1.57;1.03;;;;;;;;;;5120707;27;20286;-85
2023/11/05 12:55:04;;;;;;;2.83;1.17;;;;;;;;;;5133292;27;20209;-84
2023/11/05 12:57:32;;;;;;;2.53;0.90;;;;;;;;;;5134244;27;20190;-84
2023/11/05 12:59:59;;;;;;;1.30;0.60;;;;;;;;;;5116087;27;20202;-85
2023/11/05 13:02:26;;;;;;;0.83;0.83;;;;;;;;;;5132782;27;20703;-84
2023/11/05 13:04:54;;;;;;;2.17;1.37;;;;;;;;;;5120129;27;20294;-84
2023/11/05 13:07:21;;;;;;;2.43;1.30;;;;;;;;;;5124790;27;20203;-84
2023/11/05 13:09:49;;;;;;;1.13;1.03;;;;;;;;;;5126463;27;20203;-84
2023/11/05 13:12:17;;;;;;;2.50;2.30;;;;;;;;;;5121955;27;20561;-84
2023/11/05 13:14:44;;;;;;;2.57;2.07;;;;;;;;;;5133087;27;20195;-84
2023/11/05 13:17:13;;;;;;;10.03;2.70;;;;;;;;;;5134027;27;20191;-84
2023/11/05 13:19:40;;;;;;;1.83;1.43;;;;;;;;;;5131879;27;20217;-84
2023/11/05 13:22:07;;;;;;;1.30;1.20;;;;;;;;;;5123887;27;20595;-84
2023/11/05 13:24:34;;;;;;;4.37;1.30;;;;;;;;;;5112616;28;20202;-85
2023/11/05 13:27:01;;;;;;;2.57;1.30;;;;;;;;;;5112474;28;20230;-84
2023/11/05 13:29:31;;;;;;;4.60;1.80;;;;;;;;;;5125701;27;20632;-84
2023/11/05 13:31:58;;;;;;;7.93;3.20;;;;;;;;;;5124899;27;20680;-84
2023/11/05 13:34:25;;;;;;;7.27;4.67;;;;;;;;;;5119354;27;20202;-84
2023/11/05 13:36:52;;;;;;;7.47;4.43;;;;;;;;;;5122213;27;20651;-85
2023/11/05 13:39:19;;;;;;;6.07;2.97;;;;;;;;;;5126615;27;20195;-84
2023/11/05 13:41:47;;;;;;;3.57;2.23;;;;;;;;;;5123265;27;20626;-84
2023/11/05 13:44:14;;;;;;;4.27;1.57;;;;;;;;;;5133436;27;20218;-84
2023/11/05 13:46:42;;;;;;;0.77;0.70;;;;;;;;;;5119331;27;20230;-83
2023/11/05 13:49:10;;;;;;;1.20;1.10;;;;;;;;;;5131023;27;20203;-84
2023/11/05 13:51:37;;;;;;;2.40;1.00;;;;;;;;;;5133121;27;20705;-84
2023/11/05 13:54:04;;;;;;;2.40;0.90;;;;;;;;;;5132643;27;20207;-86
2023/11/05 13:56:31;;;;;;;1.03;0.93;;;;;;;;;;5133274;27;20564;-83
2023/11/05 13:58:58;;;;;;;2.37;2.07;;;;;;;;;;5132959;27;20206;-84
2023/11/05 14:01:27;;;;;;;4.10;2.37;;;;;;;;;;5119025;27;20721;-84
2023/11/05 14:03:56;;;;;;;4.13;2.23;;;;;;;;;;5133041;27;20215;-84
2023/11/05 14:06:23;;;;;;;3.67;1.13;;;;;;;;;;5118858;27;20697;-84
2023/11/05 14:08:50;;;;;;;6.53;1.20;;;;;;;;;;5117626;27;20201;-84
2023/11/05 14:11:17;;;;;;;5.43;3.87;;;;;;;;;;5114708;27;20227;-81
2023/11/05 14:13:44;;;;;;;11.57;2.67;;;;;;;;;;5128744;27;20229;-80
2023/11/05 14:16:10;;;;;;;1.17;1.17;;;;;;;;;;5121811;27;20235;-83
2023/11/05 14:18:37;;;;;;;2.10;0.97;;;;;;;;;;5128729;27;20625;-82
2023/11/05 14:21:06;;;;;;;0.80;0.80;;;;;;;;;;5132224;27;20226;-82
2023/11/05 14:23:32;;;;;;;1.73;0.90;;;;;;;;;;5118197;27;20677;-82
2023/11/05 14:25:59;;;;;;;2.07;0.90;;;;;;;;;;5120242;27;20226;-83
2023/11/05 14:28:26;;;;;;;1.90;1.20;;;;;;;;;;5125635;27;20218;-84
2023/11/05 14:30:54;;;;;;;1.30;1.20;;;;;;;;;;5123048;27;20639;-83
2023/11/05 14:33:21;;;;;;;0.80;0.80;;;;;;;;;;5130962;27;20226;-82
2023/11/05 14:35:48;;;;;;;1.43;1.03;;;;;;;;;;5132132;27;20230;-84
2023/11/05 14:38:16;;;;;;;2.13;0.90;;;;;;;;;;5130776;27;20202;-85
2023/11/05 14:40:46;;;;;;;1.60;1.50;;;;;;;;;;5132292;27;20213;-83
2023/11/05 14:43:13;;;;;;;5.60;3.40;;;;;;;;;;5125269;27;20235;-84
2023/11/05 14:45:40;;;;;;;2.73;1.80;;;;;;;;;;5123219;27;20198;-85